Indian Mills, New Jersey
Current Conditions -  °F | °C
As of 11:54 AM on Sunday 23 Nov 2014 (Local Time) from KVAY Reporting Station
Clear Clear  
Wind Chill: 52°   Ceiling: Unl
Heat Index: 52°   Visibility: 10mi
Dew Point: 25°   Wind: 5mph
Humidity: 35%   Direction: NA
Pressure: 30.17"   Gusts: NA
Location:  39.7955°N, 74.6301°W
Report Text: KVAY 231654Z AUTO VRB04KT 10SM CLR 11/M04 A3017 RMK AO2 SLP216 T01111039
Loading
Personal Weather Stations






























Interactive Weather Map New forecast layout! Learn more

10-Day Weather Forecast

Advertisements
Track Severe Weather on mobile